createdAt,value
2023-02-03T00:01:31.015Z,2.10
2023-02-03T00:06:47.157Z,1.90
2023-02-03T00:09:14.650Z,2.42
2023-02-03T00:11:41.245Z,2.10
2023-02-03T00:14:08.053Z,2.08
2023-02-03T00:16:35.648Z,2.50
2023-02-03T00:21:28.981Z,2.00
2023-02-03T00:23:55.652Z,1.95
2023-02-03T00:26:22.864Z,1.90
2023-02-03T00:28:49.984Z,2.60
2023-02-03T00:31:18.632Z,2.25
2023-02-03T00:33:46.479Z,2.00
2023-02-03T00:36:13.583Z,1.95
2023-02-03T00:41:07.766Z,2.60
2023-02-03T00:43:34.715Z,2.13
2023-02-03T00:46:01.360Z,2.55
2023-02-03T00:48:28.034Z,2.38
2023-02-03T00:50:54.874Z,2.70
2023-02-03T00:53:21.423Z,3.53
2023-02-03T00:55:47.978Z,3.67
2023-02-03T00:58:14.784Z,3.63
2023-02-03T01:00:41.293Z,4.10
2023-02-03T01:03:07.797Z,4.00
2023-02-03T01:05:34.550Z,4.78
2023-02-03T01:08:01.393Z,5.90
2023-02-03T01:10:29.141Z,6.72
2023-02-03T01:12:55.801Z,5.30
2023-02-03T01:15:22.472Z,7.63
2023-02-03T01:17:49.127Z,6.10
2023-02-03T01:20:17.785Z,7.70
2023-02-03T01:22:44.625Z,7.45
2023-02-03T01:25:11.219Z,8.98
2023-02-03T01:27:37.862Z,9.23
2023-02-03T01:30:04.955Z,8.25
2023-02-03T01:32:31.533Z,7.22
2023-02-03T01:34:58.054Z,7.90
2023-02-03T01:37:24.678Z,7.50
2023-02-03T01:39:51.282Z,7.40
2023-02-03T01:42:17.803Z,6.15
2023-02-03T01:44:52.926Z,6.22
2023-02-03T01:47:39.977Z,5.63
2023-02-03T01:50:16.194Z,4.25
2023-02-03T01:52:47.466Z,4.20
2023-02-03T01:55:19.627Z,5.55
2023-02-03T01:57:52.166Z,5.05
2023-02-03T02:00:19.262Z,5.20
2023-02-03T02:02:48.489Z,4.60
2023-02-03T02:05:27.311Z,4.75
2023-02-03T02:07:56.598Z,3.78
2023-02-03T02:10:23.795Z,4.07
2023-02-03T02:15:18.075Z,3.97
2023-02-03T02:18:01.614Z,3.63
2023-02-03T02:20:38.114Z,3.08
2023-02-03T02:23:17.309Z,3.75
2023-02-03T02:26:21.348Z,3.40
2023-02-03T02:29:00.627Z,2.90
2023-02-03T02:31:48.592Z,3.03
2023-02-03T02:34:30.531Z,2.90
2023-02-03T02:37:28.608Z,3.13
2023-02-03T02:40:07.663Z,2.15
2023-02-03T02:42:54.947Z,3.00
2023-02-03T02:45:30.416Z,3.00
2023-02-03T02:48:27.208Z,2.30
2023-02-03T02:50:57.388Z,2.60
2023-02-03T02:53:29.422Z,2.60
2023-02-03T02:55:58.608Z,2.90
2023-02-03T02:58:28.187Z,2.83
2023-02-03T03:00:55.030Z,2.58
2023-02-03T03:03:25.540Z,2.50
2023-02-03T03:05:55.745Z,2.38
2023-02-03T03:08:33.805Z,3.65
2023-02-03T03:11:02.358Z,2.45
2023-02-03T03:13:35.511Z,2.83
2023-02-03T03:16:07.520Z,2.70
2023-02-03T03:18:43.550Z,2.42
2023-02-03T03:21:16.096Z,3.20
2023-02-03T03:23:46.504Z,3.03
2023-02-03T03:26:19.964Z,2.75
2023-02-03T03:28:57.978Z,3.28
2023-02-03T03:31:24.817Z,2.55
2023-02-03T03:33:51.457Z,2.83
2023-02-03T03:36:42.804Z,2.65
2023-02-03T03:39:15.636Z,2.00
2023-02-03T03:42:01.014Z,2.40
2023-02-03T03:44:35.511Z,2.40
2023-02-03T03:47:17.652Z,2.67
2023-02-03T03:49:46.919Z,2.47
2023-02-03T03:52:20.275Z,2.25
2023-02-03T03:54:50.249Z,2.40
2023-02-03T03:57:25.742Z,2.15
2023-02-03T03:59:53.529Z,2.60
2023-02-03T04:02:22.221Z,2.78
2023-02-03T04:04:50.650Z,2.85
2023-02-03T04:07:17.268Z,2.92
2023-02-03T04:09:44.086Z,2.10
2023-02-03T04:12:22.483Z,3.42
2023-02-03T04:14:49.636Z,2.22
2023-02-03T04:17:16.355Z,4.03
2023-02-03T04:19:44.973Z,2.33
2023-02-03T04:22:11.421Z,3.00
2023-02-03T04:24:37.925Z,2.72
2023-02-03T04:27:05.466Z,2.40
2023-02-03T04:29:32.160Z,3.10
2023-02-03T04:31:58.945Z,3.00
2023-02-03T04:34:25.857Z,3.88
2023-02-03T04:36:52.431Z,3.38
2023-02-03T04:39:19.180Z,3.03
2023-02-03T04:41:45.901Z,3.13
2023-02-03T04:44:12.415Z,3.40
2023-02-03T04:46:39.053Z,3.15
2023-02-03T04:49:05.742Z,2.65
2023-02-03T04:51:32.364Z,3.08
2023-02-03T04:53:59.023Z,3.00
2023-02-03T04:56:25.935Z,2.90
2023-02-03T05:01:19.093Z,3.22
2023-02-03T05:03:45.847Z,3.50
2023-02-03T05:06:12.455Z,2.70
2023-02-03T05:08:39.137Z,2.50
2023-02-03T05:11:06.783Z,2.85
2023-02-03T05:13:33.800Z,2.42
2023-02-03T05:16:00.362Z,3.00
2023-02-03T05:18:27.144Z,2.88
2023-02-03T05:20:54.008Z,2.53
2023-02-03T05:23:20.671Z,3.03
2023-02-03T05:25:47.223Z,2.55
2023-02-03T05:28:14.115Z,2.55
2023-02-03T05:30:41.231Z,2.30
2023-02-03T05:35:35.317Z,2.40
2023-02-03T05:38:02.700Z,2.13
2023-02-03T05:40:48.004Z,2.50
2023-02-03T05:43:15.296Z,2.25
2023-02-03T05:45:41.880Z,1.77
2023-02-03T05:48:08.817Z,2.33
2023-02-03T05:53:08.545Z,1.85
2023-02-03T05:55:36.236Z,1.63
2023-02-03T05:58:05.231Z,1.80
2023-02-03T06:00:31.741Z,2.40
2023-02-03T06:03:01.016Z,2.25
2023-02-03T06:05:28.901Z,1.75
2023-02-03T06:07:55.838Z,1.55
2023-02-03T06:10:23.111Z,1.73
2023-02-03T06:12:50.735Z,1.80
2023-02-03T06:15:17.912Z,2.03
2023-02-03T06:17:46.139Z,2.00
2023-02-03T06:20:17.170Z,1.88
2023-02-03T06:22:45.245Z,2.00
2023-02-03T06:25:14.731Z,2.35
2023-02-03T06:27:42.246Z,2.53
2023-02-03T06:30:11.282Z,1.70
2023-02-03T06:32:38.232Z,2.80
2023-02-03T06:35:05.447Z,2.40
2023-02-03T06:37:32.649Z,2.22
2023-02-03T06:39:59.519Z,2.60
2023-02-03T06:42:26.420Z,2.90
2023-02-03T06:44:53.804Z,2.13
2023-02-03T06:47:20.654Z,2.83
2023-02-03T06:49:47.370Z,3.00
2023-02-03T06:52:15.618Z,2.70
2023-02-03T06:54:42.113Z,3.17
2023-02-03T06:57:08.852Z,3.22
2023-02-03T06:59:35.609Z,3.72
2023-02-03T07:02:02.301Z,3.35
2023-02-03T07:04:30.119Z,2.97
2023-02-03T07:06:59.543Z,3.65
2023-02-03T07:09:26.219Z,3.72
2023-02-03T07:11:52.776Z,3.10
2023-02-03T07:14:19.498Z,2.92
2023-02-03T07:16:46.094Z,3.22
2023-02-03T07:19:12.799Z,2.72
2023-02-03T07:21:39.648Z,3.30
2023-02-03T07:24:06.464Z,2.58
2023-02-03T07:26:33.150Z,2.80
2023-02-03T07:29:00.810Z,2.50
2023-02-03T07:33:54.264Z,2.20
2023-02-03T07:36:20.837Z,2.83
2023-02-03T07:38:47.414Z,3.13
2023-02-03T07:41:15.905Z,3.22
2023-02-03T07:43:43.963Z,2.65
2023-02-03T07:46:11.748Z,2.95
2023-02-03T07:48:38.564Z,2.47
2023-02-03T07:53:34.281Z,2.53
2023-02-03T07:56:02.742Z,2.53
2023-02-03T07:58:29.949Z,2.40
2023-02-03T08:00:58.770Z,2.60
2023-02-03T08:03:28.680Z,1.85
2023-02-03T08:05:58.766Z,1.92
2023-02-03T08:08:25.415Z,2.20
2023-02-03T08:10:51.899Z,2.33
2023-02-03T08:13:18.546Z,2.78
2023-02-03T08:15:45.207Z,2.55
2023-02-03T08:18:15.576Z,2.78
2023-02-03T08:20:42.288Z,2.95
2023-02-03T08:23:08.809Z,3.08
2023-02-03T08:25:35.380Z,3.17
2023-02-03T08:28:02.116Z,4.20
2023-02-03T08:30:28.968Z,4.25
2023-02-03T08:32:55.819Z,4.20
2023-02-03T08:35:22.400Z,5.10
2023-02-03T08:37:49.099Z,4.40
2023-02-03T08:40:16.017Z,4.20
2023-02-03T08:42:42.602Z,5.20
2023-02-03T08:45:09.734Z,4.20
2023-02-03T08:47:36.937Z,5.15
2023-02-03T08:50:06.340Z,4.80
2023-02-03T08:52:32.880Z,4.88
2023-02-03T08:54:59.469Z,4.97
2023-02-03T08:57:25.997Z,4.53
2023-02-03T08:59:52.588Z,5.30
2023-02-03T09:02:19.737Z,5.57
2023-02-03T09:04:47.498Z,5.43
2023-02-03T09:07:14.191Z,6.57
2023-02-03T09:09:40.768Z,4.93
2023-02-03T09:12:08.750Z,4.57
2023-02-03T09:14:35.477Z,5.65
2023-02-03T09:17:03.491Z,5.88
2023-02-03T09:19:31.469Z,5.60
2023-02-03T09:21:58.042Z,5.80
2023-02-03T09:24:25.223Z,5.72
2023-02-03T09:29:20.180Z,5.97
2023-02-03T09:31:48.728Z,6.85
2023-02-03T09:34:15.328Z,5.80
2023-02-03T09:36:43.066Z,5.47
2023-02-03T09:39:10.025Z,7.15
2023-02-03T09:42:01.534Z,6.22
2023-02-03T09:44:35.436Z,6.68
2023-02-03T09:47:21.112Z,6.70
2023-02-03T09:49:51.948Z,6.07
2023-02-03T09:52:24.999Z,7.28
2023-02-03T09:55:06.690Z,6.97
2023-02-03T09:57:44.115Z,6.10
2023-02-03T10:00:27.052Z,6.07
2023-02-03T10:03:05.923Z,5.63
2023-02-03T10:05:51.217Z,8.30
2023-02-03T10:08:42.083Z,7.07
2023-02-03T10:11:50.979Z,6.53
2023-02-03T10:14:39.230Z,5.72
2023-02-03T10:17:21.182Z,6.88
2023-02-03T10:20:05.925Z,7.20
2023-02-03T10:22:37.924Z,6.10
2023-02-03T10:25:33.687Z,6.03
2023-02-03T10:28:04.791Z,5.95
2023-02-03T10:30:45.168Z,6.63
2023-02-03T10:33:16.156Z,6.35
2023-02-03T10:35:49.738Z,5.72
2023-02-03T10:38:46.154Z,6.53
2023-02-03T10:41:14.980Z,6.05
2023-02-03T10:43:47.569Z,7.47
2023-02-03T10:46:33.744Z,6.07
2023-02-03T10:49:00.339Z,6.70
2023-02-03T10:51:32.666Z,6.97
2023-02-03T10:54:00.658Z,6.72
2023-02-03T10:56:32.363Z,6.45
2023-02-03T10:59:00.525Z,5.95
2023-02-03T11:01:49.195Z,6.57
2023-02-03T11:04:33.495Z,5.97
2023-02-03T11:07:22.898Z,5.85
2023-02-03T11:09:49.703Z,6.07
2023-02-03T11:12:18.589Z,6.00
2023-02-03T11:14:50.290Z,6.78
2023-02-03T11:17:29.686Z,6.03
2023-02-03T11:20:29.022Z,5.18
2023-02-03T11:22:56.387Z,6.05
2023-02-03T11:25:32.432Z,5.18
2023-02-03T11:28:05.393Z,6.37
2023-02-03T11:30:32.132Z,5.30
2023-02-03T11:33:03.083Z,5.97
2023-02-03T11:35:31.751Z,6.28
2023-02-03T11:38:00.708Z,5.35
2023-02-03T11:40:36.972Z,6.05
2023-02-03T11:43:14.577Z,6.40
2023-02-03T11:45:56.265Z,5.45
2023-02-03T11:48:28.983Z,6.70
2023-02-03T11:51:25.934Z,5.00
2023-02-03T11:53:57.170Z,5.00
2023-02-03T11:56:48.666Z,6.00
2023-02-03T11:59:27.467Z,6.05
2023-02-03T12:02:15.905Z,5.70
2023-02-03T12:05:04.630Z,5.40
2023-02-03T12:08:01.096Z,5.80
2023-02-03T12:10:32.760Z,5.13
2023-02-03T12:13:18.281Z,6.25
2023-02-03T12:16:16.148Z,5.03
2023-02-03T12:18:48.895Z,5.55
2023-02-03T12:21:39.014Z,5.88
2023-02-03T12:24:27.560Z,4.97
2023-02-03T12:27:25.341Z,7.00
2023-02-03T12:29:59.847Z,5.65
2023-02-03T12:32:29.521Z,5.55
2023-02-03T12:34:59.985Z,6.50
2023-02-03T12:37:39.754Z,5.40
2023-02-03T12:40:19.080Z,6.30
2023-02-03T12:43:23.881Z,5.22
2023-02-03T12:46:16.560Z,4.60
2023-02-03T12:48:54.552Z,5.32
2023-02-03T12:51:38.861Z,6.13
2023-02-03T12:54:18.947Z,5.45
2023-02-03T12:56:49.156Z,5.53
2023-02-03T12:59:21.978Z,5.75
2023-02-03T13:02:00.190Z,4.55
2023-02-03T13:04:47.090Z,5.05
2023-02-03T13:07:47.386Z,5.03
2023-02-03T13:10:30.183Z,5.88
2023-02-03T13:12:58.891Z,4.78
2023-02-03T13:15:39.174Z,5.47
2023-02-03T13:18:26.545Z,5.90
2023-02-03T13:20:54.521Z,5.00
2023-02-03T13:23:22.675Z,5.32
2023-02-03T13:26:01.063Z,5.60
2023-02-03T13:28:58.681Z,5.78
2023-02-03T13:31:59.812Z,5.78
2023-02-03T13:34:41.697Z,5.82
2023-02-03T13:37:25.493Z,4.90
2023-02-03T13:40:29.903Z,5.32
2023-02-03T13:43:00.975Z,4.78
2023-02-03T13:45:32.535Z,5.90
2023-02-03T13:48:13.998Z,5.20
2023-02-03T13:50:41.202Z,5.65
2023-02-03T13:53:18.683Z,6.22
2023-02-03T13:55:54.513Z,5.88
2023-02-03T13:58:25.361Z,6.03
2023-02-03T14:00:51.850Z,5.72
2023-02-03T14:03:25.670Z,6.75
2023-02-03T14:05:54.857Z,5.38
2023-02-03T14:08:30.157Z,5.60
2023-02-03T14:11:34.512Z,6.30
2023-02-03T14:14:06.953Z,5.95
2023-02-03T14:16:37.793Z,5.15
2023-02-03T14:19:05.549Z,6.47
2023-02-03T14:22:09.371Z,7.35
2023-02-03T14:24:40.440Z,5.82
2023-02-03T14:27:18.925Z,5.45
2023-02-03T14:29:46.223Z,5.63
2023-02-03T14:34:46.505Z,5.75
2023-02-03T14:37:30.258Z,6.30
2023-02-03T14:40:26.232Z,6.45
2023-02-03T14:43:12.286Z,5.30
2023-02-03T14:45:57.908Z,6.00
2023-02-03T14:48:42.645Z,6.85
2023-02-03T14:51:47.615Z,5.25
2023-02-03T14:54:33.735Z,5.47
2023-02-03T14:57:20.553Z,5.85
2023-02-03T14:59:47.106Z,7.32
2023-02-03T15:02:20.753Z,6.53
2023-02-03T15:04:50.318Z,7.18
2023-02-03T15:07:47.546Z,6.57
2023-02-03T15:10:22.981Z,6.05
2023-02-03T15:12:55.848Z,6.72
2023-02-03T15:15:31.304Z,7.00
2023-02-03T15:18:00.860Z,6.53
2023-02-03T15:20:44.377Z,7.25
2023-02-03T15:23:25.863Z,6.20
2023-02-03T15:26:10.646Z,6.38
2023-02-03T15:28:37.140Z,6.38
2023-02-03T15:31:09.622Z,6.55
2023-02-03T15:33:38.089Z,6.75
2023-02-03T15:36:16.274Z,5.85
2023-02-03T15:38:50.088Z,6.65
2023-02-03T15:41:22.921Z,6.82
2023-02-03T15:43:54.864Z,6.15
2023-02-03T15:46:38.421Z,6.30
2023-02-03T15:49:36.100Z,6.53
2023-02-03T15:52:23.157Z,6.13
2023-02-03T15:54:54.788Z,7.93
2023-02-03T15:57:29.952Z,6.70
2023-02-03T16:00:27.191Z,6.97
2023-02-03T16:02:55.097Z,6.35
2023-02-03T16:05:26.830Z,5.28
2023-02-03T16:07:53.789Z,5.57
2023-02-03T16:10:32.762Z,5.40
2023-02-03T16:13:22.345Z,6.93
2023-02-03T16:16:08.439Z,6.82
2023-02-03T16:18:36.824Z,6.10
2023-02-03T16:21:06.542Z,5.43
2023-02-03T16:23:33.512Z,6.32
2023-02-03T16:28:50.036Z,5.70
2023-02-03T16:31:38.371Z,7.13
2023-02-03T16:34:38.203Z,6.47
2023-02-03T16:37:50.932Z,6.00
2023-02-03T16:40:42.440Z,6.78
2023-02-03T16:43:31.127Z,6.20
2023-02-03T16:46:17.624Z,5.18
2023-02-03T16:49:02.873Z,6.00
2023-02-03T16:51:40.572Z,6.80
2023-02-03T16:54:10.955Z,4.93
2023-02-03T16:56:37.545Z,7.35
2023-02-03T16:59:04.147Z,6.30
2023-02-03T17:01:30.871Z,6.70
2023-02-03T17:03:57.512Z,6.15
2023-02-03T17:06:27.165Z,5.57
2023-02-03T17:08:54.514Z,5.63
2023-02-03T17:11:23.931Z,5.00
2023-02-03T17:13:50.895Z,4.57
2023-02-03T17:16:23.168Z,4.63
2023-02-03T17:18:50.251Z,3.90
2023-02-03T17:21:20.554Z,4.68
2023-02-03T17:23:47.720Z,4.72
2023-02-03T17:26:14.425Z,4.43
2023-02-03T17:28:43.057Z,6.22
2023-02-03T17:31:16.230Z,7.40
2023-02-03T17:33:43.410Z,5.85
2023-02-03T17:36:21.356Z,5.55
2023-02-03T17:55:22.015Z,4.20
2023-02-03T17:57:48.841Z,3.78
2023-02-03T18:00:16.037Z,4.07
2023-02-03T18:05:13.548Z,3.58
2023-02-03T18:07:40.394Z,5.10
2023-02-03T18:10:07.038Z,3.35
2023-02-03T18:12:34.077Z,3.40
2023-02-03T18:15:00.814Z,3.35
2023-02-03T18:17:27.567Z,3.97
2023-02-03T18:19:56.644Z,3.70
2023-02-03T18:22:24.165Z,3.00
2023-02-03T18:24:52.330Z,3.60
2023-02-03T18:27:20.840Z,3.70
2023-02-03T18:29:48.545Z,3.28
2023-02-03T18:32:16.352Z,3.50
2023-02-03T18:34:46.620Z,3.72
2023-02-03T18:37:13.749Z,4.18
2023-02-03T18:42:07.274Z,3.50
2023-02-03T18:44:35.645Z,3.65
2023-02-03T18:47:07.042Z,3.97
2023-02-03T18:49:36.986Z,4.10
2023-02-03T18:52:04.869Z,4.38
2023-02-03T18:54:31.392Z,3.75
2023-02-03T18:57:02.896Z,3.45
2023-02-03T18:59:29.899Z,3.20
2023-02-03T19:01:56.501Z,4.25
2023-02-03T19:04:23.553Z,3.67
2023-02-03T19:06:52.533Z,4.45
2023-02-03T19:09:20.783Z,3.20
2023-02-03T19:11:47.457Z,3.47
2023-02-03T19:14:14.759Z,2.80
2023-02-03T19:16:41.473Z,3.20
2023-02-03T19:19:08.327Z,3.35
2023-02-03T19:24:01.883Z,2.85
2023-02-03T19:26:28.712Z,2.47
2023-02-03T19:31:22.953Z,2.00
2023-02-03T19:33:50.570Z,2.15
2023-02-03T19:36:17.194Z,2.30
2023-02-03T19:38:44.310Z,1.85
2023-02-03T19:41:11.811Z,1.80
2023-02-03T19:43:40.305Z,1.95
2023-02-03T19:46:08.158Z,2.50
2023-02-03T19:48:35.966Z,2.58
2023-02-03T19:51:02.759Z,2.20
2023-02-03T19:53:29.895Z,2.03
2023-02-03T19:58:24.210Z,1.65
2023-02-03T20:00:51.531Z,1.67
2023-02-03T20:03:19.870Z,1.20
2023-02-03T20:05:46.758Z,1.20
2023-02-03T20:08:14.880Z,1.20
2023-02-03T20:10:44.677Z,1.40
2023-02-03T20:13:12.975Z,1.30
2023-02-03T20:15:39.866Z,1.52
2023-02-03T20:18:06.893Z,1.48
2023-02-03T20:23:01.399Z,1.58
2023-02-03T20:25:27.990Z,1.38
2023-02-03T20:27:56.992Z,2.90
2023-02-03T20:30:24.261Z,2.05
2023-02-03T20:32:51.108Z,2.22
2023-02-03T20:35:17.666Z,1.80
2023-02-03T20:37:44.481Z,2.15
2023-02-03T20:40:16.899Z,1.88
2023-02-03T20:42:47.403Z,2.00
2023-02-03T20:45:15.956Z,1.88
2023-02-03T20:47:43.598Z,2.08
2023-02-03T20:50:18.248Z,2.10
2023-02-03T20:52:45.846Z,2.95
2023-02-03T20:55:17.155Z,1.95
2023-02-03T20:57:44.938Z,1.83
2023-02-03T21:00:16.558Z,1.80
2023-02-03T21:03:14.059Z,2.55
2023-02-03T21:05:45.405Z,1.60
2023-02-03T21:08:20.560Z,1.63
2023-02-03T21:10:48.509Z,1.70
2023-02-03T21:13:29.808Z,2.05
2023-02-03T21:16:03.391Z,1.70
2023-02-03T21:18:46.719Z,1.98
2023-02-03T21:21:27.544Z,1.80
2023-02-03T21:23:54.973Z,1.60
2023-02-03T21:26:27.079Z,1.50
2023-02-03T21:28:56.184Z,1.70
2023-02-03T21:31:31.990Z,1.80
2023-02-03T21:34:04.534Z,1.42
2023-02-03T21:36:35.295Z,1.40
2023-02-03T21:39:01.919Z,1.80
2023-02-03T21:41:37.599Z,1.50
2023-02-03T21:44:28.509Z,1.70
2023-02-03T21:46:55.131Z,1.73
2023-02-03T21:49:22.354Z,1.52
2023-02-03T21:51:49.326Z,1.60
2023-02-03T21:54:25.775Z,1.92
2023-02-03T21:56:53.976Z,1.50
2023-02-03T21:59:24.412Z,1.73
2023-02-03T22:01:53.021Z,2.42
2023-02-03T22:04:19.862Z,1.30
2023-02-03T22:06:53.873Z,1.65
2023-02-03T22:09:22.878Z,2.05
2023-02-03T22:11:49.511Z,1.27
2023-02-03T22:14:17.779Z,1.63
2023-02-03T22:16:44.862Z,1.73
2023-02-03T22:21:37.908Z,1.48
2023-02-03T22:24:05.205Z,1.33
2023-02-03T22:26:31.843Z,1.40
2023-02-03T22:28:58.469Z,1.48
2023-02-03T22:31:25.494Z,1.42
2023-02-03T22:33:52.370Z,1.90
2023-02-03T22:36:19.297Z,1.40
2023-02-03T22:38:46.006Z,1.27
2023-02-03T22:41:13.058Z,1.23
2023-02-03T22:43:40.198Z,1.30
2023-02-03T22:46:07.369Z,1.20
2023-02-03T22:48:34.654Z,1.30
2023-02-03T22:51:01.431Z,1.70
2023-02-03T22:53:28.517Z,1.50
2023-02-03T22:55:55.704Z,1.27
2023-02-03T23:00:48.776Z,1.00
2023-02-03T23:03:15.313Z,1.88
2023-02-03T23:05:41.997Z,1.40
2023-02-03T23:08:09.568Z,1.67
2023-02-03T23:10:36.197Z,1.33
2023-02-03T23:13:02.726Z,1.40
2023-02-03T23:15:29.720Z,1.30
2023-02-03T23:17:56.341Z,1.80
2023-02-03T23:20:23.220Z,1.42
2023-02-03T23:22:49.801Z,1.40
2023-02-03T23:25:16.366Z,1.42
2023-02-03T23:27:43.028Z,1.50
2023-02-03T23:30:10.504Z,1.25
2023-02-03T23:32:37.047Z,1.38
2023-02-03T23:35:23.286Z,1.38
2023-02-03T23:37:49.986Z,1.30
2023-02-03T23:40:16.684Z,1.33
2023-02-03T23:42:43.369Z,1.40
2023-02-03T23:45:12.129Z,1.60
2023-02-03T23:47:40.414Z,1.50
2023-02-03T23:50:09.256Z,1.35
2023-02-03T23:52:36.045Z,1.20
2023-02-03T23:55:08.133Z,1.58
2023-02-03T23:57:34.773Z,1.45
